sensor_id;sensor_type;location;lat;lon;timestamp;P1;durP1;ratioP1;P2;durP2;ratioP2
73940;SDS011;62294;48.554;10.202;2022-11-09T00:00:47;13.18;;;7.70;;
73940;SDS011;62294;48.554;10.202;2022-11-09T00:03:14;10.98;;;6.20;;
73940;SDS011;62294;48.554;10.202;2022-11-09T00:05:40;13.27;;;6.75;;
73940;SDS011;62294;48.554;10.202;2022-11-09T00:08:08;8.20;;;5.65;;
73940;SDS011;62294;48.554;10.202;2022-11-09T00:10:35;11.60;;;5.50;;
73940;SDS011;62294;48.554;10.202;2022-11-09T00:13:02;8.35;;;5.05;;
73940;SDS011;62294;48.554;10.202;2022-11-09T00:15:29;13.60;;;7.32;;
73940;SDS011;62294;48.554;10.202;2022-11-09T00:17:58;13.32;;;6.78;;
73940;SDS011;62294;48.554;10.202;2022-11-09T00:20:26;12.32;;;7.57;;
73940;SDS011;62294;48.554;10.202;2022-11-09T00:22:53;12.50;;;6.80;;
73940;SDS011;62294;48.554;10.202;2022-11-09T00:25:20;16.25;;;8.40;;
73940;SDS011;62294;48.554;10.202;2022-11-09T00:27:46;17.20;;;9.32;;
73940;SDS011;62294;48.554;10.202;2022-11-09T00:30:13;16.70;;;8.05;;
73940;SDS011;62294;48.554;10.202;2022-11-09T00:32:39;12.57;;;7.32;;
73940;SDS011;62294;48.554;10.202;2022-11-09T00:35:05;12.77;;;7.60;;
73940;SDS011;62294;48.554;10.202;2022-11-09T00:37:32;13.77;;;7.32;;
73940;SDS011;62294;48.554;10.202;2022-11-09T00:39:59;11.35;;;6.82;;
73940;SDS011;62294;48.554;10.202;2022-11-09T00:42:26;15.25;;;6.47;;
73940;SDS011;62294;48.554;10.202;2022-11-09T00:44:52;11.52;;;6.93;;
73940;SDS011;62294;48.554;10.202;2022-11-09T00:47:18;20.67;;;7.30;;
73940;SDS011;62294;48.554;10.202;2022-11-09T00:49:45;14.25;;;7.45;;
73940;SDS011;62294;48.554;10.202;2022-11-09T00:52:11;14.52;;;7.15;;
73940;SDS011;62294;48.554;10.202;2022-11-09T00:54:37;13.27;;;7.07;;
73940;SDS011;62294;48.554;10.202;2022-11-09T00:57:04;13.57;;;6.88;;
73940;SDS011;62294;48.554;10.202;2022-11-09T00:59:30;14.38;;;7.07;;
73940;SDS011;62294;48.554;10.202;2022-11-09T01:01:57;11.50;;;6.18;;
73940;SDS011;62294;48.554;10.202;2022-11-09T01:04:23;9.70;;;6.13;;
73940;SDS011;62294;48.554;10.202;2022-11-09T01:06:49;10.35;;;6.13;;
73940;SDS011;62294;48.554;10.202;2022-11-09T01:09:16;11.57;;;6.90;;
73940;SDS011;62294;48.554;10.202;2022-11-09T01:11:43;10.77;;;6.97;;
73940;SDS011;62294;48.554;10.202;2022-11-09T01:14:09;14.10;;;7.07;;
73940;SDS011;62294;48.554;10.202;2022-11-09T01:16:36;16.20;;;7.65;;
73940;SDS011;62294;48.554;10.202;2022-11-09T01:19:02;13.68;;;6.82;;
73940;SDS011;62294;48.554;10.202;2022-11-09T01:21:29;13.98;;;7.38;;
73940;SDS011;62294;48.554;10.202;2022-11-09T01:23:56;14.57;;;8.32;;
73940;SDS011;62294;48.554;10.202;2022-11-09T01:26:23;14.18;;;8.25;;
73940;SDS011;62294;48.554;10.202;2022-11-09T01:28:50;14.98;;;7.45;;
73940;SDS011;62294;48.554;10.202;2022-11-09T01:31:17;11.15;;;7.07;;
73940;SDS011;62294;48.554;10.202;2022-11-09T01:33:45;13.98;;;8.32;;
73940;SDS011;62294;48.554;10.202;2022-11-09T01:36:22;14.77;;;8.82;;
73940;SDS011;62294;48.554;10.202;2022-11-09T01:38:49;20.83;;;10.15;;
73940;SDS011;62294;48.554;10.202;2022-11-09T01:41:17;17.65;;;10.80;;
73940;SDS011;62294;48.554;10.202;2022-11-09T01:44:01;21.17;;;11.90;;
73940;SDS011;62294;48.554;10.202;2022-11-09T01:46:32;15.93;;;9.63;;
73940;SDS011;62294;48.554;10.202;2022-11-09T01:52:13;22.10;;;12.50;;
73940;SDS011;62294;48.554;10.202;2022-11-09T01:54:44;23.95;;;11.80;;
73940;SDS011;62294;48.554;10.202;2022-11-09T01:57:21;25.58;;;12.85;;
73940;SDS011;62294;48.554;10.202;2022-11-09T01:59:56;23.48;;;13.80;;
73940;SDS011;62294;48.554;10.202;2022-11-09T02:02:27;27.05;;;14.25;;
73940;SDS011;62294;48.554;10.202;2022-11-09T02:04:55;25.83;;;13.48;;
73940;SDS011;62294;48.554;10.202;2022-11-09T02:07:26;24.88;;;13.68;;
73940;SDS011;62294;48.554;10.202;2022-11-09T02:13:01;24.70;;;14.38;;
73940;SDS011;62294;48.554;10.202;2022-11-09T02:15:29;25.92;;;13.05;;
73940;SDS011;62294;48.554;10.202;2022-11-09T02:17:55;22.20;;;12.93;;
73940;SDS011;62294;48.554;10.202;2022-11-09T02:20:22;22.42;;;12.35;;
73940;SDS011;62294;48.554;10.202;2022-11-09T02:22:50;22.67;;;13.35;;
73940;SDS011;62294;48.554;10.202;2022-11-09T02:25:17;20.10;;;12.25;;
73940;SDS011;62294;48.554;10.202;2022-11-09T02:27:43;19.23;;;11.50;;
73940;SDS011;62294;48.554;10.202;2022-11-09T02:30:11;18.13;;;11.13;;
73940;SDS011;62294;48.554;10.202;2022-11-09T02:32:39;17.15;;;11.57;;
73940;SDS011;62294;48.554;10.202;2022-11-09T02:35:06;20.15;;;11.65;;
73940;SDS011;62294;48.554;10.202;2022-11-09T02:37:39;15.63;;;10.32;;
73940;SDS011;62294;48.554;10.202;2022-11-09T02:40:12;18.05;;;10.93;;
73940;SDS011;62294;48.554;10.202;2022-11-09T02:42:42;18.88;;;10.05;;
73940;SDS011;62294;48.554;10.202;2022-11-09T02:45:09;17.48;;;10.05;;
73940;SDS011;62294;48.554;10.202;2022-11-09T02:47:36;17.23;;;9.45;;
73940;SDS011;62294;48.554;10.202;2022-11-09T02:50:02;15.68;;;9.57;;
73940;SDS011;62294;48.554;10.202;2022-11-09T02:52:29;17.30;;;9.52;;
73940;SDS011;62294;48.554;10.202;2022-11-09T02:54:56;14.63;;;9.30;;
73940;SDS011;62294;48.554;10.202;2022-11-09T02:57:22;17.30;;;9.35;;
73940;SDS011;62294;48.554;10.202;2022-11-09T02:59:49;14.95;;;9.82;;
73940;SDS011;62294;48.554;10.202;2022-11-09T03:02:16;17.40;;;10.18;;
73940;SDS011;62294;48.554;10.202;2022-11-09T03:04:42;17.42;;;10.25;;
73940;SDS011;62294;48.554;10.202;2022-11-09T03:07:09;19.25;;;9.80;;
73940;SDS011;62294;48.554;10.202;2022-11-09T03:09:35;15.07;;;9.07;;
73940;SDS011;62294;48.554;10.202;2022-11-09T03:12:02;16.35;;;9.35;;
73940;SDS011;62294;48.554;10.202;2022-11-09T03:14:48;14.35;;;9.00;;
73940;SDS011;62294;48.554;10.202;2022-11-09T03:17:15;15.10;;;8.45;;
73940;SDS011;62294;48.554;10.202;2022-11-09T03:19:43;16.38;;;9.18;;
73940;SDS011;62294;48.554;10.202;2022-11-09T03:22:10;13.23;;;8.45;;
73940;SDS011;62294;48.554;10.202;2022-11-09T03:24:36;16.17;;;9.93;;
73940;SDS011;62294;48.554;10.202;2022-11-09T03:27:03;19.00;;;9.63;;
73940;SDS011;62294;48.554;10.202;2022-11-09T03:29:30;17.10;;;9.23;;
73940;SDS011;62294;48.554;10.202;2022-11-09T03:31:56;19.70;;;9.50;;
73940;SDS011;62294;48.554;10.202;2022-11-09T03:34:22;17.55;;;9.85;;
73940;SDS011;62294;48.554;10.202;2022-11-09T03:36:49;17.90;;;9.48;;
73940;SDS011;62294;48.554;10.202;2022-11-09T03:39:15;16.77;;;9.30;;
73940;SDS011;62294;48.554;10.202;2022-11-09T03:41:42;15.45;;;8.68;;
73940;SDS011;62294;48.554;10.202;2022-11-09T03:44:08;16.25;;;9.07;;
73940;SDS011;62294;48.554;10.202;2022-11-09T03:46:35;13.80;;;7.93;;
73940;SDS011;62294;48.554;10.202;2022-11-09T03:49:02;15.32;;;8.13;;
73940;SDS011;62294;48.554;10.202;2022-11-09T03:51:29;16.48;;;8.40;;
73940;SDS011;62294;48.554;10.202;2022-11-09T03:53:55;11.52;;;7.57;;
73940;SDS011;62294;48.554;10.202;2022-11-09T03:56:22;13.55;;;8.27;;
73940;SDS011;62294;48.554;10.202;2022-11-09T03:58:48;22.10;;;12.07;;
73940;SDS011;62294;48.554;10.202;2022-11-09T04:01:15;34.53;;;19.10;;
73940;SDS011;62294;48.554;10.202;2022-11-09T04:03:42;37.58;;;20.05;;
73940;SDS011;62294;48.554;10.202;2022-11-09T04:06:09;14.50;;;9.13;;
73940;SDS011;62294;48.554;10.202;2022-11-09T04:08:35;16.77;;;9.23;;
73940;SDS011;62294;48.554;10.202;2022-11-09T04:11:01;13.55;;;8.30;;
73940;SDS011;62294;48.554;10.202;2022-11-09T04:13:28;13.98;;;8.07;;
73940;SDS011;62294;48.554;10.202;2022-11-09T04:15:54;15.68;;;8.75;;
73940;SDS011;62294;48.554;10.202;2022-11-09T04:18:21;16.70;;;9.70;;
73940;SDS011;62294;48.554;10.202;2022-11-09T04:20:48;15.40;;;9.65;;
73940;SDS011;62294;48.554;10.202;2022-11-09T04:23:14;18.08;;;9.00;;
73940;SDS011;62294;48.554;10.202;2022-11-09T04:25:41;17.35;;;9.73;;
73940;SDS011;62294;48.554;10.202;2022-11-09T04:28:09;18.05;;;9.73;;
73940;SDS011;62294;48.554;10.202;2022-11-09T04:30:37;17.83;;;9.18;;
73940;SDS011;62294;48.554;10.202;2022-11-09T04:33:03;20.63;;;9.65;;
73940;SDS011;62294;48.554;10.202;2022-11-09T04:35:31;14.90;;;9.27;;
73940;SDS011;62294;48.554;10.202;2022-11-09T04:38:02;16.77;;;9.77;;
73940;SDS011;62294;48.554;10.202;2022-11-09T04:40:34;16.27;;;9.85;;
73940;SDS011;62294;48.554;10.202;2022-11-09T04:43:04;17.60;;;10.23;;
73940;SDS011;62294;48.554;10.202;2022-11-09T04:45:32;18.60;;;9.88;;
73940;SDS011;62294;48.554;10.202;2022-11-09T04:48:00;17.42;;;9.27;;
73940;SDS011;62294;48.554;10.202;2022-11-09T04:50:28;21.80;;;12.63;;
73940;SDS011;62294;48.554;10.202;2022-11-09T04:53:02;33.60;;;19.23;;
73940;SDS011;62294;48.554;10.202;2022-11-09T04:55:39;26.15;;;15.13;;
73940;SDS011;62294;48.554;10.202;2022-11-09T04:58:06;30.65;;;17.60;;
73940;SDS011;62294;48.554;10.202;2022-11-09T05:00:33;30.58;;;16.83;;
73940;SDS011;62294;48.554;10.202;2022-11-09T05:03:01;38.72;;;22.65;;
73940;SDS011;62294;48.554;10.202;2022-11-09T05:05:28;53.67;;;27.10;;
73940;SDS011;62294;48.554;10.202;2022-11-09T05:07:55;49.95;;;25.92;;
73940;SDS011;62294;48.554;10.202;2022-11-09T05:10:22;47.20;;;26.20;;
73940;SDS011;62294;48.554;10.202;2022-11-09T05:12:49;42.83;;;24.25;;
73940;SDS011;62294;48.554;10.202;2022-11-09T05:15:15;47.08;;;28.17;;
73940;SDS011;62294;48.554;10.202;2022-11-09T05:17:41;48.53;;;26.35;;
73940;SDS011;62294;48.554;10.202;2022-11-09T05:20:08;32.47;;;21.27;;
73940;SDS011;62294;48.554;10.202;2022-11-09T05:22:38;38.50;;;21.70;;
73940;SDS011;62294;48.554;10.202;2022-11-09T05:25:23;31.70;;;19.88;;
73940;SDS011;62294;48.554;10.202;2022-11-09T05:27:51;33.53;;;19.23;;
73940;SDS011;62294;48.554;10.202;2022-11-09T05:30:17;20.88;;;12.10;;
73940;SDS011;62294;48.554;10.202;2022-11-09T05:32:44;16.85;;;11.13;;
73940;SDS011;62294;48.554;10.202;2022-11-09T05:35:11;21.23;;;12.25;;
73940;SDS011;62294;48.554;10.202;2022-11-09T05:37:38;21.13;;;12.20;;
73940;SDS011;62294;48.554;10.202;2022-11-09T05:40:05;21.85;;;13.52;;
73940;SDS011;62294;48.554;10.202;2022-11-09T05:42:33;26.13;;;16.17;;
73940;SDS011;62294;48.554;10.202;2022-11-09T05:45:03;28.77;;;16.48;;
73940;SDS011;62294;48.554;10.202;2022-11-09T05:47:49;27.95;;;16.50;;
73940;SDS011;62294;48.554;10.202;2022-11-09T05:50:16;28.73;;;16.83;;
73940;SDS011;62294;48.554;10.202;2022-11-09T05:52:42;43.42;;;23.58;;
73940;SDS011;62294;48.554;10.202;2022-11-09T05:55:09;31.27;;;18.67;;
73940;SDS011;62294;48.554;10.202;2022-11-09T05:57:35;30.77;;;18.30;;
73940;SDS011;62294;48.554;10.202;2022-11-09T06:00:03;28.05;;;16.02;;
73940;SDS011;62294;48.554;10.202;2022-11-09T06:02:35;19.15;;;12.60;;
73940;SDS011;62294;48.554;10.202;2022-11-09T06:05:02;15.45;;;9.80;;
73940;SDS011;62294;48.554;10.202;2022-11-09T06:07:29;14.18;;;9.40;;
73940;SDS011;62294;48.554;10.202;2022-11-09T06:09:55;13.77;;;8.60;;
73940;SDS011;62294;48.554;10.202;2022-11-09T06:12:22;14.25;;;8.18;;
73940;SDS011;62294;48.554;10.202;2022-11-09T06:14:49;13.65;;;8.57;;
73940;SDS011;62294;48.554;10.202;2022-11-09T06:17:15;10.95;;;6.78;;
73940;SDS011;62294;48.554;10.202;2022-11-09T06:19:42;13.63;;;6.75;;
73940;SDS011;62294;48.554;10.202;2022-11-09T06:22:09;12.60;;;7.32;;
73940;SDS011;62294;48.554;10.202;2022-11-09T06:24:35;13.13;;;7.00;;
73940;SDS011;62294;48.554;10.202;2022-11-09T06:27:01;11.40;;;7.78;;
73940;SDS011;62294;48.554;10.202;2022-11-09T06:29:29;10.95;;;7.93;;
73940;SDS011;62294;48.554;10.202;2022-11-09T06:31:55;13.38;;;8.10;;
73940;SDS011;62294;48.554;10.202;2022-11-09T06:34:21;12.07;;;7.90;;
73940;SDS011;62294;48.554;10.202;2022-11-09T06:36:48;17.08;;;9.20;;
73940;SDS011;62294;48.554;10.202;2022-11-09T06:39:15;15.02;;;8.70;;
73940;SDS011;62294;48.554;10.202;2022-11-09T06:41:41;17.13;;;9.95;;
73940;SDS011;62294;48.554;10.202;2022-11-09T06:44:12;16.92;;;9.70;;
73940;SDS011;62294;48.554;10.202;2022-11-09T06:46:39;19.02;;;10.63;;
73940;SDS011;62294;48.554;10.202;2022-11-09T06:49:05;19.70;;;10.02;;
73940;SDS011;62294;48.554;10.202;2022-11-09T06:51:32;14.13;;;8.43;;
73940;SDS011;62294;48.554;10.202;2022-11-09T06:53:59;13.82;;;9.27;;
73940;SDS011;62294;48.554;10.202;2022-11-09T06:56:25;16.77;;;11.18;;
73940;SDS011;62294;48.554;10.202;2022-11-09T06:58:52;19.35;;;10.75;;
73940;SDS011;62294;48.554;10.202;2022-11-09T07:01:26;17.08;;;11.00;;
73940;SDS011;62294;48.554;10.202;2022-11-09T07:03:54;19.60;;;11.88;;
73940;SDS011;62294;48.554;10.202;2022-11-09T07:06:21;23.80;;;14.05;;
73940;SDS011;62294;48.554;10.202;2022-11-09T07:08:47;21.85;;;14.52;;
73940;SDS011;62294;48.554;10.202;2022-11-09T07:11:14;25.20;;;15.85;;
73940;SDS011;62294;48.554;10.202;2022-11-09T07:13:42;26.92;;;16.65;;
73940;SDS011;62294;48.554;10.202;2022-11-09T07:16:08;27.45;;;16.73;;
73940;SDS011;62294;48.554;10.202;2022-11-09T07:18:38;29.48;;;18.33;;
73940;SDS011;62294;48.554;10.202;2022-11-09T07:21:04;30.08;;;18.83;;
73940;SDS011;62294;48.554;10.202;2022-11-09T07:23:39;28.70;;;16.92;;
73940;SDS011;62294;48.554;10.202;2022-11-09T07:26:05;31.20;;;19.25;;
73940;SDS011;62294;48.554;10.202;2022-11-09T07:28:32;29.80;;;18.00;;
73940;SDS011;62294;48.554;10.202;2022-11-09T07:30:59;31.35;;;17.67;;
73940;SDS011;62294;48.554;10.202;2022-11-09T07:33:26;35.42;;;20.38;;
73940;SDS011;62294;48.554;10.202;2022-11-09T07:35:56;37.67;;;21.52;;
73940;SDS011;62294;48.554;10.202;2022-11-09T07:38:23;46.65;;;24.13;;
73940;SDS011;62294;48.554;10.202;2022-11-09T07:40:50;42.70;;;25.45;;
73940;SDS011;62294;48.554;10.202;2022-11-09T07:43:16;49.50;;;26.02;;
73940;SDS011;62294;48.554;10.202;2022-11-09T07:45:44;54.20;;;31.10;;
73940;SDS011;62294;48.554;10.202;2022-11-09T07:48:11;62.15;;;36.28;;
73940;SDS011;62294;48.554;10.202;2022-11-09T07:50:38;54.38;;;33.83;;
73940;SDS011;62294;48.554;10.202;2022-11-09T07:53:06;42.67;;;27.35;;
73940;SDS011;62294;48.554;10.202;2022-11-09T07:55:33;42.85;;;25.05;;
73940;SDS011;62294;48.554;10.202;2022-11-09T07:58:01;38.60;;;23.83;;
73940;SDS011;62294;48.554;10.202;2022-11-09T08:00:33;39.25;;;25.23;;
73940;SDS011;62294;48.554;10.202;2022-11-09T08:03:01;37.97;;;23.20;;
73940;SDS011;62294;48.554;10.202;2022-11-09T08:05:28;33.72;;;20.98;;
73940;SDS011;62294;48.554;10.202;2022-11-09T08:07:56;27.52;;;18.05;;
73940;SDS011;62294;48.554;10.202;2022-11-09T08:10:24;26.90;;;15.80;;
73940;SDS011;62294;48.554;10.202;2022-11-09T08:12:55;28.13;;;17.17;;
73940;SDS011;62294;48.554;10.202;2022-11-09T08:15:24;27.60;;;15.98;;
73940;SDS011;62294;48.554;10.202;2022-11-09T08:17:50;24.80;;;12.85;;
73940;SDS011;62294;48.554;10.202;2022-11-09T08:20:17;21.35;;;12.45;;
73940;SDS011;62294;48.554;10.202;2022-11-09T08:22:45;21.23;;;11.48;;
73940;SDS011;62294;48.554;10.202;2022-11-09T08:25:12;18.02;;;9.48;;
73940;SDS011;62294;48.554;10.202;2022-11-09T08:27:39;16.67;;;9.10;;
73940;SDS011;62294;48.554;10.202;2022-11-09T08:30:09;14.02;;;8.38;;
73940;SDS011;62294;48.554;10.202;2022-11-09T08:32:37;11.63;;;8.05;;
73940;SDS011;62294;48.554;10.202;2022-11-09T08:35:04;13.00;;;7.25;;
73940;SDS011;62294;48.554;10.202;2022-11-09T08:37:37;12.02;;;6.88;;
73940;SDS011;62294;48.554;10.202;2022-11-09T08:40:04;12.13;;;7.45;;
73940;SDS011;62294;48.554;10.202;2022-11-09T08:42:32;11.18;;;7.20;;
73940;SDS011;62294;48.554;10.202;2022-11-09T08:44:58;15.70;;;8.40;;
73940;SDS011;62294;48.554;10.202;2022-11-09T08:47:25;11.77;;;7.72;;
73940;SDS011;62294;48.554;10.202;2022-11-09T08:49:52;11.02;;;6.88;;
73940;SDS011;62294;48.554;10.202;2022-11-09T08:52:18;9.80;;;7.38;;
73940;SDS011;62294;48.554;10.202;2022-11-09T08:54:45;12.88;;;8.25;;
73940;SDS011;62294;48.554;10.202;2022-11-09T08:57:11;12.82;;;8.70;;
73940;SDS011;62294;48.554;10.202;2022-11-09T08:59:38;13.30;;;9.20;;
73940;SDS011;62294;48.554;10.202;2022-11-09T09:02:04;17.77;;;12.80;;
73940;SDS011;62294;48.554;10.202;2022-11-09T09:04:31;21.08;;;15.57;;
73940;SDS011;62294;48.554;10.202;2022-11-09T09:06:57;25.00;;;16.10;;
73940;SDS011;62294;48.554;10.202;2022-11-09T09:09:25;29.23;;;18.00;;
73940;SDS011;62294;48.554;10.202;2022-11-09T09:11:52;26.85;;;17.20;;
73940;SDS011;62294;48.554;10.202;2022-11-09T09:14:19;23.55;;;16.73;;
73940;SDS011;62294;48.554;10.202;2022-11-09T09:16:45;21.80;;;15.00;;
73940;SDS011;62294;48.554;10.202;2022-11-09T09:19:12;23.23;;;15.10;;
73940;SDS011;62294;48.554;10.202;2022-11-09T09:21:38;19.83;;;14.25;;
73940;SDS011;62294;48.554;10.202;2022-11-09T09:24:05;19.33;;;13.25;;
73940;SDS011;62294;48.554;10.202;2022-11-09T09:26:32;19.75;;;14.25;;
73940;SDS011;62294;48.554;10.202;2022-11-09T09:28:58;19.15;;;13.02;;
73940;SDS011;62294;48.554;10.202;2022-11-09T09:31:25;19.77;;;13.27;;
73940;SDS011;62294;48.554;10.202;2022-11-09T09:33:52;19.98;;;13.45;;
73940;SDS011;62294;48.554;10.202;2022-11-09T09:36:19;19.17;;;12.82;;
73940;SDS011;62294;48.554;10.202;2022-11-09T09:38:50;21.73;;;13.68;;
73940;SDS011;62294;48.554;10.202;2022-11-09T09:41:23;19.33;;;14.38;;
73940;SDS011;62294;48.554;10.202;2022-11-09T09:43:53;17.27;;;12.70;;
73940;SDS011;62294;48.554;10.202;2022-11-09T09:46:27;17.85;;;12.15;;
73940;SDS011;62294;48.554;10.202;2022-11-09T09:49:11;16.83;;;11.32;;
73940;SDS011;62294;48.554;10.202;2022-11-09T09:51:59;14.85;;;9.70;;
73940;SDS011;62294;48.554;10.202;2022-11-09T09:54:35;16.15;;;10.20;;
73940;SDS011;62294;48.554;10.202;2022-11-09T09:57:11;12.90;;;8.90;;
73940;SDS011;62294;48.554;10.202;2022-11-09T09:59:43;14.38;;;9.05;;
73940;SDS011;62294;48.554;10.202;2022-11-09T10:04:51;14.82;;;8.32;;
73940;SDS011;62294;48.554;10.202;2022-11-09T10:15:43;9.55;;;6.57;;
73940;SDS011;62294;48.554;10.202;2022-11-09T10:18:26;14.85;;;7.93;;
73940;SDS011;62294;48.554;10.202;2022-11-09T10:26:56;11.50;;;6.88;;
73940;SDS011;62294;48.554;10.202;2022-11-09T10:32:18;10.43;;;6.25;;
73940;SDS011;62294;48.554;10.202;2022-11-09T10:35:13;7.70;;;4.82;;
73940;SDS011;62294;48.554;10.202;2022-11-09T10:37:49;6.43;;;4.32;;
73940;SDS011;62294;48.554;10.202;2022-11-09T10:40:27;7.70;;;4.57;;
73940;SDS011;62294;48.554;10.202;2022-11-09T10:42:57;6.07;;;4.22;;
73940;SDS011;62294;48.554;10.202;2022-11-09T10:45:32;5.50;;;3.78;;
73940;SDS011;62294;48.554;10.202;2022-11-09T10:48:00;3.88;;;2.70;;
73940;SDS011;62294;48.554;10.202;2022-11-09T10:50:36;3.67;;;2.33;;
73940;SDS011;62294;48.554;10.202;2022-11-09T10:53:08;3.90;;;2.10;;
73940;SDS011;62294;48.554;10.202;2022-11-09T10:55:54;4.13;;;2.60;;
73940;SDS011;62294;48.554;10.202;2022-11-09T11:03:43;4.60;;;2.60;;
73940;SDS011;62294;48.554;10.202;2022-11-09T11:06:15;5.15;;;2.92;;
73940;SDS011;62294;48.554;10.202;2022-11-09T11:08:44;3.42;;;2.72;;
73940;SDS011;62294;48.554;10.202;2022-11-09T11:11:23;6.57;;;3.53;;
73940;SDS011;62294;48.554;10.202;2022-11-09T11:16:36;4.45;;;3.17;;
73940;SDS011;62294;48.554;10.202;2022-11-09T11:19:04;5.05;;;3.03;;
73940;SDS011;62294;48.554;10.202;2022-11-09T11:21:31;5.80;;;3.50;;
73940;SDS011;62294;48.554;10.202;2022-11-09T11:24:11;6.55;;;3.70;;
73940;SDS011;62294;48.554;10.202;2022-11-09T11:26:42;9.23;;;3.65;;
73940;SDS011;62294;48.554;10.202;2022-11-09T11:32:15;3.08;;;2.10;;
73940;SDS011;62294;48.554;10.202;2022-11-09T11:34:47;4.78;;;2.45;;
73940;SDS011;62294;48.554;10.202;2022-11-09T11:37:22;2.83;;;1.52;;
73940;SDS011;62294;48.554;10.202;2022-11-09T11:40:11;2.42;;;1.30;;
73940;SDS011;62294;48.554;10.202;2022-11-09T11:42:55;1.88;;;1.25;;
73940;SDS011;62294;48.554;10.202;2022-11-09T11:45:35;2.97;;;1.40;;
73940;SDS011;62294;48.554;10.202;2022-11-09T11:48:21;1.33;;;1.00;;
73940;SDS011;62294;48.554;10.202;2022-11-09T12:01:43;2.47;;;1.40;;
73940;SDS011;62294;48.554;10.202;2022-11-09T12:07:10;4.07;;;2.30;;
73940;SDS011;62294;48.554;10.202;2022-11-09T12:09:57;2.97;;;1.85;;
73940;SDS011;62294;48.554;10.202;2022-11-09T12:23:46;2.00;;;1.27;;
73940;SDS011;62294;48.554;10.202;2022-11-09T12:26:47;2.60;;;1.08;;
73940;SDS011;62294;48.554;10.202;2022-11-09T12:29:36;2.25;;;1.20;;
73940;SDS011;62294;48.554;10.202;2022-11-09T12:34:43;0.98;;;0.82;;
73940;SDS011;62294;48.554;10.202;2022-11-09T12:37:23;2.30;;;1.00;;
73940;SDS011;62294;48.554;10.202;2022-11-09T12:39:52;0.90;;;0.90;;
73940;SDS011;62294;48.554;10.202;2022-11-09T12:42:25;2.38;;;1.27;;
73940;SDS011;62294;48.554;10.202;2022-11-09T12:45:27;3.60;;;1.10;;
73940;SDS011;62294;48.554;10.202;2022-11-09T12:48:25;3.03;;;1.50;;
73940;SDS011;62294;48.554;10.202;2022-11-09T12:50:55;3.80;;;2.20;;
73940;SDS011;62294;48.554;10.202;2022-11-09T12:53:26;4.18;;;2.10;;
73940;SDS011;62294;48.554;10.202;2022-11-09T12:56:09;4.85;;;2.38;;
73940;SDS011;62294;48.554;10.202;2022-11-09T12:58:42;4.72;;;2.45;;
73940;SDS011;62294;48.554;10.202;2022-11-09T13:01:10;5.55;;;2.80;;
73940;SDS011;62294;48.554;10.202;2022-11-09T13:03:50;4.28;;;2.30;;
73940;SDS011;62294;48.554;10.202;2022-11-09T13:09:02;1.70;;;1.50;;
73940;SDS011;62294;48.554;10.202;2022-11-09T13:11:38;3.30;;;1.50;;
73940;SDS011;62294;48.554;10.202;2022-11-09T13:16:58;3.20;;;1.70;;
73940;SDS011;62294;48.554;10.202;2022-11-09T13:29:58;6.38;;;2.45;;
73940;SDS011;62294;48.554;10.202;2022-11-09T13:34:59;1.60;;;1.50;;
73940;SDS011;62294;48.554;10.202;2022-11-09T13:45:36;4.68;;;2.47;;
73940;SDS011;62294;48.554;10.202;2022-11-09T13:51:11;3.70;;;1.90;;
73940;SDS011;62294;48.554;10.202;2022-11-09T13:53:57;3.80;;;1.73;;
73940;SDS011;62294;48.554;10.202;2022-11-09T13:56:27;4.68;;;1.88;;
73940;SDS011;62294;48.554;10.202;2022-11-09T14:01:47;2.05;;;1.27;;
73940;SDS011;62294;48.554;10.202;2022-11-09T14:04:20;2.22;;;1.50;;
73940;SDS011;62294;48.554;10.202;2022-11-09T14:12:36;6.47;;;2.80;;
73940;SDS011;62294;48.554;10.202;2022-11-09T14:18:10;5.90;;;2.42;;
73940;SDS011;62294;48.554;10.202;2022-11-09T14:20:40;5.65;;;2.45;;
73940;SDS011;62294;48.554;10.202;2022-11-09T14:23:19;2.65;;;1.98;;
73940;SDS011;62294;48.554;10.202;2022-11-09T14:25:47;4.80;;;3.35;;
73940;SDS011;62294;48.554;10.202;2022-11-09T14:28:26;4.68;;;2.40;;
73940;SDS011;62294;48.554;10.202;2022-11-09T14:30:55;7.05;;;2.42;;
73940;SDS011;62294;48.554;10.202;2022-11-09T14:33:26;3.50;;;2.40;;
73940;SDS011;62294;48.554;10.202;2022-11-09T14:35:56;7.20;;;3.47;;
73940;SDS011;62294;48.554;10.202;2022-11-09T14:38:26;7.45;;;3.22;;
73940;SDS011;62294;48.554;10.202;2022-11-09T14:40:56;6.18;;;4.20;;
73940;SDS011;62294;48.554;10.202;2022-11-09T14:43:23;5.10;;;2.80;;
73940;SDS011;62294;48.554;10.202;2022-11-09T14:45:55;5.25;;;2.70;;
73940;SDS011;62294;48.554;10.202;2022-11-09T14:48:25;7.43;;;2.90;;
73940;SDS011;62294;48.554;10.202;2022-11-09T14:50:54;6.90;;;2.95;;
73940;SDS011;62294;48.554;10.202;2022-11-09T14:53:32;5.68;;;3.15;;
73940;SDS011;62294;48.554;10.202;2022-11-09T14:56:03;5.72;;;3.50;;
73940;SDS011;62294;48.554;10.202;2022-11-09T14:58:32;5.47;;;3.47;;
73940;SDS011;62294;48.554;10.202;2022-11-09T15:01:21;5.22;;;2.90;;
73940;SDS011;62294;48.554;10.202;2022-11-09T15:04:05;7.32;;;3.33;;
73940;SDS011;62294;48.554;10.202;2022-11-09T15:06:32;4.05;;;2.78;;
73940;SDS011;62294;48.554;10.202;2022-11-09T15:09:07;8.18;;;3.75;;
73940;SDS011;62294;48.554;10.202;2022-11-09T15:11:39;6.40;;;3.03;;
73940;SDS011;62294;48.554;10.202;2022-11-09T15:14:14;4.97;;;2.90;;
73940;SDS011;62294;48.554;10.202;2022-11-09T15:17:14;4.07;;;2.28;;
73940;SDS011;62294;48.554;10.202;2022-11-09T15:19:51;6.13;;;2.90;;
73940;SDS011;62294;48.554;10.202;2022-11-09T15:30:45;2.88;;;1.73;;
73940;SDS011;62294;48.554;10.202;2022-11-09T15:38:27;4.78;;;2.28;;
73940;SDS011;62294;48.554;10.202;2022-11-09T15:41:00;6.85;;;2.38;;
73940;SDS011;62294;48.554;10.202;2022-11-09T15:43:27;3.53;;;2.25;;
73940;SDS011;62294;48.554;10.202;2022-11-09T15:45:54;3.20;;;1.90;;
73940;SDS011;62294;48.554;10.202;2022-11-09T15:48:21;6.07;;;4.32;;
73940;SDS011;62294;48.554;10.202;2022-11-09T15:50:48;5.30;;;3.10;;
73940;SDS011;62294;48.554;10.202;2022-11-09T15:53:15;6.57;;;3.35;;
73940;SDS011;62294;48.554;10.202;2022-11-09T15:55:41;11.27;;;5.50;;
73940;SDS011;62294;48.554;10.202;2022-11-09T15:58:10;13.77;;;5.28;;
73940;SDS011;62294;48.554;10.202;2022-11-09T16:00:39;13.25;;;6.35;;
73940;SDS011;62294;48.554;10.202;2022-11-09T16:03:06;10.60;;;4.20;;
73940;SDS011;62294;48.554;10.202;2022-11-09T16:05:33;6.28;;;3.45;;
73940;SDS011;62294;48.554;10.202;2022-11-09T16:07:59;7.85;;;3.17;;
73940;SDS011;62294;48.554;10.202;2022-11-09T16:10:26;6.95;;;3.17;;
73940;SDS011;62294;48.554;10.202;2022-11-09T16:12:55;5.03;;;3.25;;
73940;SDS011;62294;48.554;10.202;2022-11-09T16:15:22;6.05;;;3.35;;
73940;SDS011;62294;48.554;10.202;2022-11-09T16:17:49;10.90;;;4.55;;
73940;SDS011;62294;48.554;10.202;2022-11-09T16:20:16;7.20;;;4.68;;
73940;SDS011;62294;48.554;10.202;2022-11-09T16:22:44;10.88;;;4.57;;
73940;SDS011;62294;48.554;10.202;2022-11-09T16:25:11;7.72;;;3.95;;
73940;SDS011;62294;48.554;10.202;2022-11-09T16:27:38;6.22;;;3.10;;
73940;SDS011;62294;48.554;10.202;2022-11-09T16:30:15;7.18;;;4.03;;
73940;SDS011;62294;48.554;10.202;2022-11-09T16:32:42;6.45;;;3.85;;
73940;SDS011;62294;48.554;10.202;2022-11-09T16:35:09;5.10;;;3.40;;